Time;durP1;ratioP1;P1;durP2;ratioP2;P2;SDS_P1;SDS_P2;PMS_P1;PMS_P2;Temp;Humidity;BMP_temperature;BMP_pressure;BME280_temperature;BME280_humidity;BME280_pressure;Samples;Min_cycle;Max_cycle;Signal;HPM_P1;HPM_P2
2021/07/06 00:01:53;;;;;;;;;;;13.90;99.90;;;;;;5095686;28;19924;-77
2021/07/06 00:04:22;;;;;;;;;;;13.90;99.90;;;;;;5095133;28;19924;-77
2021/07/06 00:06:48;;;;;;;;;;;13.90;99.90;;;;;;5095237;28;20332;-76
2021/07/06 00:09:15;;;;;;;;;;;13.90;99.90;;;;;;5095177;28;20366;-77
2021/07/06 00:11:42;;;;;;;;;;;13.90;99.90;;;;;;5095296;28;19924;-78
2021/07/06 00:14:09;;;;;;;;;;;13.90;99.90;;;;;;5095349;28;19924;-77
2021/07/06 00:16:36;;;;;;;;;;;13.90;99.90;;;;;;5095217;28;19924;-77
2021/07/06 00:19:03;;;;;;;;;;;13.80;99.90;;;;;;5095126;28;19934;-77
2021/07/06 00:21:31;;;;;;;;;;;13.80;99.90;;;;;;5095309;28;19934;-76
2021/07/06 00:23:58;;;;;;;;;;;13.70;99.90;;;;;;5095403;28;20245;-77
2021/07/06 00:26:25;;;;;;;;;;;13.70;99.90;;;;;;5095039;28;19924;-77
2021/07/06 00:28:51;;;;;;;;;;;13.70;99.90;;;;;;5094851;28;19924;-76
2021/07/06 00:31:18;;;;;;;;;;;13.70;99.90;;;;;;5094111;28;19928;-77
2021/07/06 00:33:45;;;;;;;;;;;13.70;99.90;;;;;;5094951;28;19924;-75
2021/07/06 00:36:12;;;;;;;;;;;13.60;99.90;;;;;;5095202;28;20241;-76
2021/07/06 00:38:40;;;;;;;;;;;13.60;99.90;;;;;;5094986;28;19928;-75
2021/07/06 00:41:07;;;;;;;;;;;13.60;99.90;;;;;;5094913;28;19935;-75
2021/07/06 00:43:36;;;;;;;;;;;13.60;99.90;;;;;;5094851;28;20255;-75
2021/07/06 00:46:03;;;;;;;;;;;13.60;99.90;;;;;;5098882;28;19928;-76
2021/07/06 00:48:30;;;;;;;;;;;13.60;99.90;;;;;;5098824;28;20255;-76
2021/07/06 00:50:57;;;;;;;;;;;13.60;99.90;;;;;;5098599;28;20358;-75
2021/07/06 00:53:23;;;;;;;;;;;13.60;99.90;;;;;;5098596;28;19938;-75
2021/07/06 00:55:53;;;;;;;;;;;13.60;99.90;;;;;;5098690;28;19924;-76
2021/07/06 00:58:20;;;;;;;;;;;13.60;99.90;;;;;;5098565;28;19924;-76
2021/07/06 01:00:47;;;;;;;;;;;13.60;99.90;;;;;;5098724;28;19924;-76
2021/07/06 01:03:13;;;;;;;;;;;13.60;99.90;;;;;;5098505;28;19942;-76
2021/07/06 01:05:40;;;;;;;;;;;13.60;99.90;;;;;;5098427;28;19931;-76
2021/07/06 01:08:07;;;;;;;;;;;13.50;99.90;;;;;;5098384;28;19924;-76
2021/07/06 01:10:34;;;;;;;;;;;13.60;99.90;;;;;;5098417;28;19934;-77
2021/07/06 01:13:02;;;;;;;;;;;13.60;99.90;;;;;;5098307;28;19931;-77
2021/07/06 01:15:29;;;;;;;;;;;13.60;99.90;;;;;;5098265;28;20352;-78
2021/07/06 01:18:00;;;;;;;;;;;13.60;99.90;;;;;;5098485;28;19951;-77
2021/07/06 01:20:27;;;;;;;;;;;13.60;99.90;;;;;;5098096;28;20371;-77
2021/07/06 01:22:55;;;;;;;;;;;13.70;99.90;;;;;;5098000;28;20027;-76
2021/07/06 01:25:22;;;;;;;;;;;13.70;99.90;;;;;;5098045;28;19924;-76
2021/07/06 01:27:49;;;;;;;;;;;13.60;99.90;;;;;;5097844;28;20019;-75
2021/07/06 01:30:16;;;;;;;;;;;13.60;99.90;;;;;;5097885;28;19931;-75
2021/07/06 01:32:43;;;;;;;;;;;13.60;99.90;;;;;;5098146;28;19924;-75
2021/07/06 01:35:11;;;;;;;;;;;13.60;99.90;;;;;;5098286;28;19934;-74
2021/07/06 01:37:42;;;;;;;;;;;13.60;99.90;;;;;;5097951;28;20019;-73
2021/07/06 01:40:11;;;;;;;;;;;13.60;99.90;;;;;;5097720;28;19928;-74
2021/07/06 01:42:38;;;;;;;;;;;13.60;99.90;;;;;;5097763;28;19930;-73
2021/07/06 01:45:05;;;;;;;;;;;13.70;99.90;;;;;;5097841;28;19924;-74
2021/07/06 01:47:32;;;;;;;;;;;13.60;99.90;;;;;;5097823;28;20340;-74
2021/07/06 01:49:59;;;;;;;;;;;13.60;99.90;;;;;;5097390;28;19938;-74
2021/07/06 01:52:26;;;;;;;;;;;13.60;99.90;;;;;;5097737;28;19930;-74
2021/07/06 01:54:53;;;;;;;;;;;13.60;99.90;;;;;;5097195;28;19924;-74
2021/07/06 01:57:24;;;;;;;;;;;13.70;99.90;;;;;;5097681;28;19924;-73
2021/07/06 01:59:51;;;;;;;;;;;13.70;99.90;;;;;;5097564;28;19924;-73
2021/07/06 02:02:18;;;;;;;;;;;13.70;99.90;;;;;;5097403;28;19934;-73
2021/07/06 02:04:46;;;;;;;;;;;13.70;99.90;;;;;;5097345;28;19924;-73
2021/07/06 02:07:13;;;;;;;;;;;13.60;99.90;;;;;;5097295;28;19924;-74
2021/07/06 02:09:40;;;;;;;;;;;13.60;99.90;;;;;;5097095;28;19928;-73
2021/07/06 02:12:07;;;;;;;;;;;13.60;99.90;;;;;;5097607;28;19934;-74
2021/07/06 02:14:35;;;;;;;;;;;13.60;99.90;;;;;;5097120;28;20032;-74
2021/07/06 02:17:02;;;;;;;;;;;13.60;99.90;;;;;;5096973;28;19924;-74
2021/07/06 02:19:29;;;;;;;;;;;13.60;99.90;;;;;;5097143;28;19924;-74
2021/07/06 02:21:55;;;;;;;;;;;13.50;99.90;;;;;;5096906;28;19924;-75
2021/07/06 02:24:22;;;;;;;;;;;13.50;99.90;;;;;;5096774;28;19924;-75
2021/07/06 02:26:49;;;;;;;;;;;13.40;99.90;;;;;;5096776;28;19928;-75
2021/07/06 02:29:16;;;;;;;;;;;13.40;99.90;;;;;;5097192;28;19924;-75
2021/07/06 02:31:44;;;;;;;;;;;13.30;99.90;;;;;;5096885;28;19924;-75
2021/07/06 02:34:11;;;;;;;;;;;13.30;99.90;;;;;;5096711;28;19935;-77
2021/07/06 02:36:38;;;;;;;;;;;13.30;99.90;;;;;;5096895;28;19924;-75
2021/07/06 02:39:05;;;;;;;;;;;13.30;99.90;;;;;;5096893;28;19924;-74
2021/07/06 02:41:31;;;;;;;;;;;13.30;99.90;;;;;;5096826;28;19924;-75
2021/07/06 02:43:58;;;;;;;;;;;13.30;99.90;;;;;;5096619;28;20359;-74
2021/07/06 02:46:25;;;;;;;;;;;13.30;99.90;;;;;;5096465;28;19924;-75
2021/07/06 02:48:53;;;;;;;;;;;13.30;99.90;;;;;;5096379;28;19932;-74
2021/07/06 02:51:20;;;;;;;;;;;13.30;99.90;;;;;;5096339;28;19950;-74
2021/07/06 02:53:47;;;;;;;;;;;13.30;99.90;;;;;;5096557;28;20356;-74
2021/07/06 02:56:14;;;;;;;;;;;13.20;99.90;;;;;;5096223;28;19931;-76
2021/07/06 02:58:41;;;;;;;;;;;13.20;99.90;;;;;;5096282;28;19934;-74
2021/07/06 03:01:08;;;;;;;;;;;13.20;99.90;;;;;;5096431;28;19934;-74
2021/07/06 03:03:35;;;;;;;;;;;13.20;99.90;;;;;;5096255;28;19950;-75
2021/07/06 03:06:03;;;;;;;;;;;13.20;99.90;;;;;;5096057;28;19935;-75
2021/07/06 03:08:30;;;;;;;;;;;13.20;99.90;;;;;;5095495;28;19924;-74
2021/07/06 03:10:57;;;;;;;;;;;13.20;99.90;;;;;;5096062;28;19978;-75
2021/07/06 03:13:24;;;;;;;;;;;13.20;99.90;;;;;;5096207;28;19924;-74
2021/07/06 03:15:51;;;;;;;;;;;13.30;99.90;;;;;;5096308;28;19924;-75
2021/07/06 03:18:18;;;;;;;;;;;13.20;99.90;;;;;;5096047;28;19924;-76
2021/07/06 03:20:46;;;;;;;;;;;13.20;99.90;;;;;;5095743;28;19935;-75
2021/07/06 03:23:15;;;;;;;;;;;13.10;99.90;;;;;;5096081;28;19932;-75
2021/07/06 03:25:43;;;;;;;;;;;13.10;99.90;;;;;;5095925;28;19959;-75
2021/07/06 03:28:10;;;;;;;;;;;13.10;99.90;;;;;;5095822;28;20026;-75
2021/07/06 03:30:37;;;;;;;;;;;13.10;99.90;;;;;;5095715;28;20348;-75
2021/07/06 03:33:04;;;;;;;;;;;13.10;99.90;;;;;;5095828;28;19930;-74
2021/07/06 03:35:31;;;;;;;;;;;13.10;99.90;;;;;;5095751;28;19935;-74
2021/07/06 03:37:58;;;;;;;;;;;13.10;99.90;;;;;;5095464;28;19934;-74
2021/07/06 03:40:26;;;;;;;;;;;13.10;99.90;;;;;;5095678;28;19924;-74
2021/07/06 03:42:53;;;;;;;;;;;13.10;99.90;;;;;;5095558;28;19924;-75
2021/07/06 03:45:20;;;;;;;;;;;13.00;99.90;;;;;;5095528;28;19939;-74
2021/07/06 03:47:48;;;;;;;;;;;13.10;99.90;;;;;;5095432;28;19924;-74
2021/07/06 03:50:18;;;;;;;;;;;13.10;99.90;;;;;;5095520;28;19947;-74
2021/07/06 03:52:45;;;;;;;;;;;13.00;99.90;;;;;;5095634;28;19924;-75
2021/07/06 03:55:12;;;;;;;;;;;13.10;99.90;;;;;;5095522;28;19932;-74
2021/07/06 03:57:40;;;;;;;;;;;13.00;99.90;;;;;;5095396;28;20018;-74
2021/07/06 04:00:08;;;;;;;;;;;13.10;99.90;;;;;;5095240;28;19924;-74
2021/07/06 04:02:35;;;;;;;;;;;13.10;99.90;;;;;;5095201;28;19934;-74
2021/07/06 04:05:02;;;;;;;;;;;13.10;99.90;;;;;;5095500;28;19934;-74
2021/07/06 04:07:29;;;;;;;;;;;13.10;99.90;;;;;;5095221;28;19924;-73
2021/07/06 04:09:56;;;;;;;;;;;13.10;99.90;;;;;;5095174;28;19934;-73
2021/07/06 04:12:22;;;;;;;;;;;13.10;99.90;;;;;;5095491;28;19931;-74
2021/07/06 04:14:51;;;;;;;;;;;13.20;99.90;;;;;;5095281;28;19946;-74
2021/07/06 04:17:18;;;;;;;;;;;13.20;99.90;;;;;;5095061;28;19934;-74
2021/07/06 04:19:44;;;;;;;;;;;13.10;99.90;;;;;;5097162;28;19934;-74
2021/07/06 04:22:11;;;;;;;;;;;13.10;99.90;;;;;;5099517;28;19939;-74
2021/07/06 04:24:38;;;;;;;;;;;13.10;99.90;;;;;;5099493;28;19924;-74
2021/07/06 04:27:05;;;;;;;;;;;13.20;99.90;;;;;;5099375;28;20370;-74
2021/07/06 04:29:32;;;;;;;;;;;13.20;99.90;;;;;;5099179;28;19924;-75
2021/07/06 04:32:00;;;;;;;;;;;13.20;99.90;;;;;;5099081;28;19928;-74
2021/07/06 04:34:27;;;;;;;;;;;13.30;99.90;;;;;;5099607;28;19925;-74
2021/07/06 04:36:54;;;;;;;;;;;13.30;99.90;;;;;;5099147;28;20241;-74
2021/07/06 04:39:21;;;;;;;;;;;13.30;99.90;;;;;;5098873;28;20348;-74
2021/07/06 04:41:48;;;;;;;;;;;13.30;99.90;;;;;;5099031;28;19932;-74
2021/07/06 04:44:14;;;;;;;;;;;13.30;99.90;;;;;;5098834;28;19924;-74
2021/07/06 04:46:42;;;;;;;;;;;13.30;99.90;;;;;;5098785;28;20340;-75
2021/07/06 04:49:10;;;;;;;;;;;13.30;99.90;;;;;;5098700;28;20333;-74
2021/07/06 04:51:37;;;;;;;;;;;13.30;99.90;;;;;;5099132;28;19924;-74
2021/07/06 04:54:03;;;;;;;;;;;13.40;99.90;;;;;;5098704;28;19927;-74
2021/07/06 04:56:30;;;;;;;;;;;13.40;99.90;;;;;;5099040;28;19950;-75
2021/07/06 04:58:57;;;;;;;;;;;13.40;99.90;;;;;;5098600;28;20256;-74
2021/07/06 05:01:24;;;;;;;;;;;13.50;99.90;;;;;;5098496;28;20461;-74
2021/07/06 05:03:51;;;;;;;;;;;13.50;99.90;;;;;;5098441;28;20264;-74
2021/07/06 05:06:19;;;;;;;;;;;13.50;99.90;;;;;;5098682;28;20252;-75
2021/07/06 05:08:46;;;;;;;;;;;13.50;99.90;;;;;;5098322;28;19931;-75
2021/07/06 05:11:13;;;;;;;;;;;13.50;99.90;;;;;;5098525;28;19924;-75
2021/07/06 05:13:40;;;;;;;;;;;13.50;99.90;;;;;;5098523;28;19935;-75
2021/07/06 05:16:06;;;;;;;;;;;13.50;99.90;;;;;;5098454;28;20023;-76
2021/07/06 05:18:33;;;;;;;;;;;13.60;99.90;;;;;;5098326;28;19928;-74
2021/07/06 05:21:00;;;;;;;;;;;13.60;99.90;;;;;;5098404;28;19934;-75
2021/07/06 05:23:28;;;;;;;;;;;13.70;99.90;;;;;;5098275;28;19924;-74
2021/07/06 05:25:55;;;;;;;;;;;13.70;99.90;;;;;;5098203;28;19924;-75
2021/07/06 05:28:22;;;;;;;;;;;13.70;99.90;;;;;;5098376;28;19938;-74
2021/07/06 05:30:49;;;;;;;;;;;13.80;99.90;;;;;;5097499;28;19930;-74
2021/07/06 05:33:16;;;;;;;;;;;13.80;99.90;;;;;;5097941;28;20298;-75
2021/07/06 05:35:42;;;;;;;;;;;13.80;99.90;;;;;;5097759;28;19924;-74
2021/07/06 05:38:09;;;;;;;;;;;13.90;99.90;;;;;;5097930;28;19930;-76
2021/07/06 05:40:39;;;;;;;;;;;13.90;99.90;;;;;;5097686;28;19924;-75
2021/07/06 05:43:06;;;;;;;;;;;13.90;99.90;;;;;;5097958;28;19977;-75
2021/07/06 05:45:33;;;;;;;;;;;13.90;99.90;;;;;;5097909;28;19928;-75
2021/07/06 05:48:00;;;;;;;;;;;13.90;99.90;;;;;;5097711;28;20356;-74
2021/07/06 05:50:27;;;;;;;;;;;14.00;99.90;;;;;;5097492;28;19930;-75
2021/07/06 05:52:54;;;;;;;;;;;14.00;99.90;;;;;;5097483;28;20364;-74
2021/07/06 05:55:21;;;;;;;;;;;14.00;99.90;;;;;;5097396;28;19935;-75
2021/07/06 05:57:49;;;;;;;;;;;14.00;99.90;;;;;;5097740;28;19924;-74
2021/07/06 06:00:16;;;;;;;;;;;14.00;99.90;;;;;;5097381;28;20366;-74
2021/07/06 06:02:43;;;;;;;;;;;14.00;99.90;;;;;;5097580;28;19992;-74
2021/07/06 06:05:10;;;;;;;;;;;14.10;99.90;;;;;;5097374;28;19934;-74
2021/07/06 06:07:38;;;;;;;;;;;14.10;99.90;;;;;;5097226;28;19934;-75
2021/07/06 06:10:05;;;;;;;;;;;14.10;99.90;;;;;;5097129;28;19934;-74
2021/07/06 06:12:32;;;;;;;;;;;14.20;99.90;;;;;;5097154;28;20011;-75
2021/07/06 06:15:00;;;;;;;;;;;14.10;99.90;;;;;;5097319;28;19931;-75
2021/07/06 06:17:27;;;;;;;;;;;14.20;99.90;;;;;;5097259;28;19924;-75
2021/07/06 06:19:54;;;;;;;;;;;14.30;99.90;;;;;;5097113;28;19924;-75
2021/07/06 06:22:21;;;;;;;;;;;14.20;99.90;;;;;;5096854;28;19924;-75
2021/07/06 06:24:47;;;;;;;;;;;14.30;99.90;;;;;;5096720;28;19924;-75
2021/07/06 06:27:15;;;;;;;;;;;14.30;99.90;;;;;;5097128;28;19924;-76
2021/07/06 06:29:42;;;;;;;;;;;14.30;99.90;;;;;;5096858;28;19991;-75
2021/07/06 06:32:10;;;;;;;;;;;14.30;99.90;;;;;;5096800;28;19935;-75
2021/07/06 06:34:37;;;;;;;;;;;14.40;99.90;;;;;;5096785;28;19935;-75
2021/07/06 06:37:04;;;;;;;;;;;14.40;99.90;;;;;;5096582;28;19938;-75
2021/07/06 06:39:31;;;;;;;;;;;14.40;99.90;;;;;;5096895;28;19928;-77
2021/07/06 06:41:57;;;;;;;;;;;14.50;99.90;;;;;;5095936;28;19924;-76
2021/07/06 06:44:24;;;;;;;;;;;14.50;99.90;;;;;;5096554;28;20279;-76
2021/07/06 06:46:51;;;;;;;;;;;14.50;99.90;;;;;;5096492;28;19934;-76
2021/07/06 06:49:19;;;;;;;;;;;14.40;99.90;;;;;;5096360;28;19932;-77
2021/07/06 06:51:46;;;;;;;;;;;14.40;99.90;;;;;;5096438;28;19924;-77
2021/07/06 06:54:13;;;;;;;;;;;14.50;99.90;;;;;;5096431;28;20249;-76
2021/07/06 06:56:42;;;;;;;;;;;14.50;99.90;;;;;;5096398;28;19924;-76
2021/07/06 06:59:08;;;;;;;;;;;14.60;99.90;;;;;;5096447;28;19931;-76
2021/07/06 07:01:37;;;;;;;;;;;14.70;99.90;;;;;;5096572;28;19989;-76
2021/07/06 07:04:04;;;;;;;;;;;14.80;99.90;;;;;;5096108;28;20332;-77
2021/07/06 07:06:32;;;;;;;;;;;14.90;99.90;;;;;;5096175;28;19930;-76
2021/07/06 07:08:59;;;;;;;;;;;15.00;99.90;;;;;;5096425;28;19977;-76
2021/07/06 07:11:26;;;;;;;;;;;15.10;99.90;;;;;;5096190;28;19923;-75
2021/07/06 07:13:53;;;;;;;;;;;15.20;99.90;;;;;;5096343;28;20360;-72
2021/07/06 07:16:20;;;;;;;;;;;15.20;99.90;;;;;;5095067;28;19934;-75
2021/07/06 07:18:47;;;;;;;;;;;15.20;99.90;;;;;;5095951;28;19934;-74
2021/07/06 07:21:13;;;;;;;;;;;15.20;99.90;;;;;;5096064;28;19927;-75
2021/07/06 07:23:42;;;;;;;;;;;15.30;99.90;;;;;;5096043;28;19924;-75
2021/07/06 07:26:09;;;;;;;;;;;15.40;99.90;;;;;;5095900;28;19924;-75
2021/07/06 07:28:35;;;;;;;;;;;15.50;99.90;;;;;;5095784;28;19924;-75
2021/07/06 07:31:02;;;;;;;;;;;15.50;99.90;;;;;;5095746;28;19924;-75
2021/07/06 07:33:29;;;;;;;;;;;15.50;99.90;;;;;;5095613;28;20267;-75
2021/07/06 07:35:56;;;;;;;;;;;15.50;99.90;;;;;;5095612;28;19924;-75
2021/07/06 07:38:24;;;;;;;;;;;15.60;99.90;;;;;;5095597;28;19924;-75
2021/07/06 07:40:52;;;;;;;;;;;15.60;99.90;;;;;;5095876;28;20320;-74
2021/07/06 07:43:19;;;;;;;;;;;15.50;99.90;;;;;;5095554;28;20365;-75
2021/07/06 07:45:46;;;;;;;;;;;15.60;99.90;;;;;;5095630;28;19924;-75
2021/07/06 07:48:13;;;;;;;;;;;15.60;99.90;;;;;;5095411;28;19938;-75
2021/07/06 07:50:40;;;;;;;;;;;15.60;99.90;;;;;;5095449;28;19924;-77
2021/07/06 07:53:07;;;;;;;;;;;15.40;99.90;;;;;;5095313;28;19924;-74
2021/07/06 07:55:33;;;;;;;;;;;15.20;99.90;;;;;;5094284;28;20278;-74
2021/07/06 07:58:02;;;;;;;;;;;15.00;99.90;;;;;;5095000;28;19924;-75
2021/07/06 08:00:29;;;;;;;;;;;15.00;99.90;;;;;;5095203;28;19924;-74
2021/07/06 08:02:58;;;;;;;;;;;15.00;99.90;;;;;;5095394;28;19928;-75
2021/07/06 08:05:25;;;;;;;;;;;14.90;99.90;;;;;;5095186;28;19936;-74
2021/07/06 08:07:52;;;;;;;;;;;14.80;99.90;;;;;;5095054;28;19935;-74
2021/07/06 08:10:19;;;;;;;;;;;14.70;99.90;;;;;;5094670;28;19935;-74
2021/07/06 08:12:46;;;;;;;;;;;14.60;99.90;;;;;;5095202;28;19934;-74
2021/07/06 08:15:14;;;;;;;;;;;14.60;99.90;;;;;;5095479;28;19923;-74
2021/07/06 08:17:41;;;;;;;;;;;14.60;99.90;;;;;;5095008;28;19924;-74
2021/07/06 08:20:08;;;;;;;;;;;14.60;99.90;;;;;;5095246;28;19924;-74
2021/07/06 08:22:35;;;;;;;;;;;14.70;99.90;;;;;;5095336;28;20379;-74
2021/07/06 08:25:02;;;;;;;;;;;14.70;99.90;;;;;;5094975;28;19924;-74
2021/07/06 08:27:29;;;;;;;;;;;14.70;99.90;;;;;;5095059;28;19923;-75
2021/07/06 08:29:55;;;;;;;;;;;14.70;99.90;;;;;;5094987;28;19928;-75
2021/07/06 08:32:24;;;;;;;;;;;14.70;99.90;;;;;;5095002;28;20237;-75
2021/07/06 08:34:51;;;;;;;;;;;14.80;99.90;;;;;;5094997;28;19924;-76
2021/07/06 08:37:18;;;;;;;;;;;14.70;99.90;;;;;;5094979;28;19924;-75
2021/07/06 08:39:45;;;;;;;;;;;14.80;99.90;;;;;;5094970;28;19924;-75
2021/07/06 08:42:12;;;;;;;;;;;14.90;99.90;;;;;;5095202;28;19950;-76
2021/07/06 08:44:40;;;;;;;;;;;14.80;99.90;;;;;;5094954;28;20264;-78
2021/07/06 08:47:08;;;;;;;;;;;14.80;99.90;;;;;;5094904;28;19936;-77
2021/07/06 08:49:36;;;;;;;;;;;14.70;99.90;;;;;;5094797;28;19924;-77
2021/07/06 08:52:03;;;;;;;;;;;14.60;99.90;;;;;;5094858;28;20253;-78
2021/07/06 08:54:31;;;;;;;;;;;14.50;99.90;;;;;;5094854;28;20341;-78
2021/07/06 08:56:58;;;;;;;;;;;14.50;99.90;;;;;;5094783;28;19977;-78
2021/07/06 08:59:25;;;;;;;;;;;14.50;99.90;;;;;;5094862;28;19924;-78
2021/07/06 09:01:51;;;;;;;;;;;14.60;99.90;;;;;;5094671;28;20241;-78
2021/07/06 09:04:18;;;;;;;;;;;14.70;99.90;;;;;;5095084;28;19947;-78
2021/07/06 09:06:57;;;;;;;;;;;14.70;99.90;;;;;;5097855;28;19939;-77
2021/07/06 09:09:24;;;;;;;;;;;14.70;99.90;;;;;;5098327;28;19924;-79
2021/07/06 09:11:51;;;;;;;;;;;14.70;99.90;;;;;;5098238;28;19924;-77
2021/07/06 09:14:18;;;;;;;;;;;14.70;99.90;;;;;;5098683;28;19931;-78
2021/07/06 09:16:45;;;;;;;;;;;14.70;99.90;;;;;;5098140;28;20343;-77
2021/07/06 09:19:19;;;;;;;;;;;14.70;99.90;;;;;;5098239;28;19942;-78
2021/07/06 09:21:46;;;;;;;;;;;14.70;99.90;;;;;;5097803;28;20352;-76
2021/07/06 09:24:24;;;;;;;;;;;14.70;99.90;;;;;;5098261;28;19934;-78
2021/07/06 09:26:51;;;;;;;;;;;14.70;99.90;;;;;;5093849;28;19927;-77
2021/07/06 09:29:23;;;;;;;;;;;14.70;99.90;;;;;;5096784;28;19924;-78
2021/07/06 09:31:50;;;;;;;;;;;14.70;99.90;;;;;;5097809;28;20260;-78
2021/07/06 09:34:17;;;;;;;;;;;14.80;99.90;;;;;;5098031;28;19938;-77
2021/07/06 09:36:45;;;;;;;;;;;14.80;99.90;;;;;;5098144;28;19924;-76
2021/07/06 09:39:17;;;;;;;;;;;14.80;99.90;;;;;;5097811;28;19924;-77
2021/07/06 09:41:53;;;;;;;;;;;14.80;99.90;;;;;;5097331;28;19986;-76
2021/07/06 09:44:21;;;;;;;;;;;14.80;99.90;;;;;;5097183;28;19935;-77
2021/07/06 09:46:48;;;;;;;;;;;14.90;99.90;;;;;;5097633;28;19924;-77
2021/07/06 09:49:16;;;;;;;;;;;14.90;99.90;;;;;;5097218;28;20005;-78
2021/07/06 09:51:43;;;;;;;;;;;15.00;99.90;;;;;;5097672;28;19994;-77
2021/07/06 09:54:10;;;;;;;;;;;15.00;99.90;;;;;;5097644;28;19924;-78
2021/07/06 09:56:40;;;;;;;;;;;15.00;99.90;;;;;;5097588;28;19938;-77
2021/07/06 09:59:14;;;;;;;;;;;15.00;99.90;;;;;;5097621;28;19938;-78
2021/07/06 10:01:52;;;;;;;;;;;15.10;99.90;;;;;;5097507;28;19924;-78
2021/07/06 10:04:19;;;;;;;;;;;15.20;99.90;;;;;;5097560;28;19924;-77
2021/07/06 10:06:45;;;;;;;;;;;15.10;99.90;;;;;;5097121;28;20442;-76
2021/07/06 10:09:12;;;;;;;;;;;15.10;99.90;;;;;;5097363;28;19923;-77
2021/07/06 10:11:39;;;;;;;;;;;15.10;99.90;;;;;;5097361;28;19925;-76
2021/07/06 10:14:06;;;;;;;;;;;15.20;99.90;;;;;;5097267;28;19935;-75
2021/07/06 10:16:35;;;;;;;;;;;15.30;99.90;;;;;;5097222;28;19928;-76
2021/07/06 10:19:02;;;;;;;;;;;15.40;99.90;;;;;;5097173;28;19993;-75
2021/07/06 10:21:29;;;;;;;;;;;15.50;99.90;;;;;;5097203;28;19924;-75
2021/07/06 10:23:58;;;;;;;;;;;15.60;99.90;;;;;;5096938;28;20230;-75
2021/07/06 10:26:26;;;;;;;;;;;15.80;99.90;;;;;;5096972;28;19924;-75
2021/07/06 10:28:53;;;;;;;;;;;15.90;99.90;;;;;;5097048;28;19932;-75
2021/07/06 10:31:20;;;;;;;;;;;16.00;99.90;;;;;;5096660;28;19934;-75
2021/07/06 10:33:49;;;;;;;;;;;16.20;99.90;;;;;;5096664;28;20244;-75
2021/07/06 10:36:16;;;;;;;;;;;16.40;99.90;;;;;;5096766;28;19924;-75
2021/07/06 10:38:47;;;;;;;;;;;16.60;99.90;;;;;;5096846;28;19985;-75
2021/07/06 10:41:23;;;;;;;;;;;16.70;99.90;;;;;;5096727;28;19924;-75
2021/07/06 10:43:54;;;;;;;;;;;16.70;99.90;;;;;;5096415;28;19924;-75
2021/07/06 10:46:31;;;;;;;;;;;16.80;99.90;;;;;;5096155;28;20253;-75
2021/07/06 10:49:00;;;;;;;;;;;16.90;99.90;;;;;;5096628;28;19939;-75
2021/07/06 10:51:50;;;;;;;;;;;16.80;99.90;;;;;;5096298;28;19924;-75
2021/07/06 10:54:17;;;;;;;;;;;16.90;99.90;;;;;;5096265;28;19928;-75
2021/07/06 10:56:44;;;;;;;;;;;16.90;99.90;;;;;;5096431;28;20015;-75
2021/07/06 10:59:18;;;;;;;;;;;16.90;99.90;;;;;;5096307;28;19946;-75
2021/07/06 11:02:08;;;;;;;;;;;16.70;99.90;;;;;;5096251;28;19935;-75
2021/07/06 11:04:59;;;;;;;;;;;16.60;99.90;;;;;;5096084;28;19932;-75
2021/07/06 11:07:51;;;;;;;;;;;16.50;99.90;;;;;;5096182;28;19985;-75
2021/07/06 11:10:19;;;;;;;;;;;16.20;99.90;;;;;;5096040;28;19939;-75
2021/07/06 11:12:49;;;;;;;;;;;16.00;99.90;;;;;;5095400;28;20197;-74
2021/07/06 11:15:19;;;;;;;;;;;15.70;99.90;;;;;;5096181;28;19939;-75
2021/07/06 11:17:47;;;;;;;;;;;15.50;99.90;;;;;;5096155;28;19932;-76
2021/07/06 11:20:14;;;;;;;;;;;15.30;99.90;;;;;;5096224;28;19924;-75
2021/07/06 11:22:41;;;;;;;;;;;15.20;99.90;;;;;;5096022;28;19935;-75
2021/07/06 11:25:19;;;;;;;;;;;15.10;99.90;;;;;;5095862;28;19928;-75
2021/07/06 11:27:56;;;;;;;;;;;15.20;99.90;;;;;;5095188;28;19970;-72
2021/07/06 11:30:23;;;;;;;;;;;15.30;99.90;;;;;;5095748;28;19935;-72
2021/07/06 11:33:04;;;;;;;;;;;15.40;99.90;;;;;;5095578;28;20241;-72
2021/07/06 11:35:31;;;;;;;;;;;15.50;99.90;;;;;;5095676;28;19924;-72
2021/07/06 11:37:59;;;;;;;;;;;15.60;99.90;;;;;;5095400;28;19978;-72
2021/07/06 11:40:28;;;;;;;;;;;15.60;99.90;;;;;;5095734;28;20256;-71
2021/07/06 11:42:55;;;;;;;;;;;15.50;99.90;;;;;;5095403;28;19942;-71
2021/07/06 11:45:22;;;;;;;;;;;15.40;99.90;;;;;;5095564;28;19924;-71
2021/07/06 11:47:48;;;;;;;;;;;15.30;99.90;;;;;;5095496;28;19939;-72
2021/07/06 11:50:25;;;;;;;;;;;15.30;99.90;;;;;;5095033;28;20271;-72
2021/07/06 11:52:51;;;;;;;;;;;15.20;99.90;;;;;;5095244;28;19950;-72
2021/07/06 11:55:23;;;;;;;;;;;15.30;99.90;;;;;;5095255;28;20244;-70
2021/07/06 11:57:53;;;;;;;;;;;15.10;99.90;;;;;;5095655;28;20329;-70
2021/07/06 12:00:20;;;;;;;;;;;15.10;99.90;;;;;;5095343;28;19934;-72
2021/07/06 12:02:47;;;;;;;;;;;15.00;99.90;;;;;;5095311;28;19935;-72
2021/07/06 12:05:15;;;;;;;;;;;14.90;99.90;;;;;;5095428;28;19925;-70
2021/07/06 12:07:41;;;;;;;;;;;14.80;99.90;;;;;;5095046;28;19931;-70
2021/07/06 12:10:09;;;;;;;;;;;14.70;99.90;;;;;;5095399;28;19928;-69
2021/07/06 12:12:36;;;;;;;;;;;14.70;99.90;;;;;;5095372;28;19935;-75
2021/07/06 12:15:05;;;;;;;;;;;14.70;99.90;;;;;;5095193;28;19939;-75
2021/07/06 12:17:33;;;;;;;;;;;14.60;99.90;;;;;;5093842;28;19924;-76
2021/07/06 12:20:00;;;;;;;;;;;14.60;99.90;;;;;;5095019;28;19928;-75
2021/07/06 12:22:27;;;;;;;;;;;14.70;99.90;;;;;;5095317;28;20324;-75
2021/07/06 12:24:54;;;;;;;;;;;14.80;99.90;;;;;;5095335;28;19924;-75
2021/07/06 12:27:21;;;;;;;;;;;14.90;99.90;;;;;;5095010;28;19931;-75
2021/07/06 12:29:53;;;;;;;;;;;15.10;99.90;;;;;;5095061;28;19924;-74
2021/07/06 12:32:22;;;;;;;;;;;15.30;99.90;;;;;;5094892;28;19932;-74
2021/07/06 12:34:53;;;;;;;;;;;15.40;99.90;;;;;;5095105;28;19928;-75
2021/07/06 12:37:20;;;;;;;;;;;15.40;99.90;;;;;;5095169;28;19967;-75
2021/07/06 12:39:49;;;;;;;;;;;15.50;99.90;;;;;;5095335;28;19935;-75
2021/07/06 12:42:19;;;;;;;;;;;15.60;99.90;;;;;;5098793;28;19924;-75
2021/07/06 12:44:46;;;;;;;;;;;15.60;99.90;;;;;;5098419;28;20279;-75
2021/07/06 12:47:14;;;;;;;;;;;15.70;99.90;;;;;;5098574;28;19924;-74
2021/07/06 12:49:44;;;;;;;;;;;15.70;99.90;;;;;;5098328;28;19924;-75
2021/07/06 12:52:11;;;;;;;;;;;15.70;99.90;;;;;;5098165;28;19924;-75
2021/07/06 12:54:38;;;;;;;;;;;15.80;99.90;;;;;;5098757;28;19935;-75
2021/07/06 12:57:05;;;;;;;;;;;15.90;99.90;;;;;;5098364;28;19924;-75
2021/07/06 12:59:32;;;;;;;;;;;15.90;99.90;;;;;;5098130;28;19924;-75
2021/07/06 13:01:59;;;;;;;;;;;16.00;99.90;;;;;;5095485;28;19927;-74
2021/07/06 13:04:44;;;;;;;;;;;16.00;99.90;;;;;;5097798;28;19924;-74
2021/07/06 13:07:12;;;;;;;;;;;16.00;99.90;;;;;;5095452;28;19935;-75
2021/07/06 13:09:39;;;;;;;;;;;15.90;99.90;;;;;;5098333;28;20360;-74
2021/07/06 13:12:13;;;;;;;;;;;15.90;99.90;;;;;;5098460;28;19924;-74
2021/07/06 13:14:39;;;;;;;;;;;15.90;99.90;;;;;;5098599;28;19927;-74
2021/07/06 13:17:21;;;;;;;;;;;15.80;99.90;;;;;;5098432;28;20233;-74
2021/07/06 13:19:57;;;;;;;;;;;15.80;99.90;;;;;;5098249;28;20318;-74
2021/07/06 13:22:25;;;;;;;;;;;15.80;99.90;;;;;;5098089;28;20382;-73
2021/07/06 13:24:52;;;;;;;;;;;15.70;99.90;;;;;;5097754;28;19935;-73
2021/07/06 13:27:19;;;;;;;;;;;15.70;99.90;;;;;;5098215;28;19993;-74
2021/07/06 13:29:46;;;;;;;;;;;15.80;99.90;;;;;;5097184;28;20356;-77
2021/07/06 13:32:13;;;;;;;;;;;15.80;99.90;;;;;;5097536;28;19924;-74
2021/07/06 13:34:39;;;;;;;;;;;15.80;99.90;;;;;;5097749;28;19928;-75
2021/07/06 13:37:07;;;;;;;;;;;15.90;99.90;;;;;;5098131;28;19934;-78
2021/07/06 13:39:35;;;;;;;;;;;16.10;99.90;;;;;;5097774;28;19931;-77
2021/07/06 13:42:02;;;;;;;;;;;16.20;99.90;;;;;;5098282;28;19950;-77
2021/07/06 13:44:29;;;;;;;;;;;16.30;99.90;;;;;;5097599;28;20382;-78
2021/07/06 13:46:57;;;;;;;;;;;16.30;99.90;;;;;;5096879;28;20430;-76
2021/07/06 13:49:24;;;;;;;;;;;16.40;99.90;;;;;;5097468;28;19931;-76
2021/07/06 13:51:57;;;;;;;;;;;16.40;99.90;;;;;;5096998;28;19930;-77
2021/07/06 13:54:25;;;;;;;;;;;16.40;99.90;;;;;;5094973;28;20014;-83
2021/07/06 13:56:53;;;;;;;;;;;16.40;99.90;;;;;;5097005;28;19931;-83
2021/07/06 13:59:20;;;;;;;;;;;16.40;99.90;;;;;;5097455;28;19920;-83
2021/07/06 14:01:47;;;;;;;;;;;16.50;99.90;;;;;;5097506;28;19919;-83
2021/07/06 14:04:13;;;;;;;;;;;16.60;99.90;;;;;;5097410;28;19919;-82
2021/07/06 14:06:40;;;;;;;;;;;16.60;99.90;;;;;;5097334;28;20018;-82
2021/07/06 14:09:07;;;;;;;;;;;16.70;99.90;;;;;;5097550;28;19930;-83
2021/07/06 14:11:34;;;;;;;;;;;16.80;99.90;;;;;;5097525;28;19932;-83
2021/07/06 14:14:02;;;;;;;;;;;17.00;99.90;;;;;;5097335;28;20275;-82
2021/07/06 14:16:29;;;;;;;;;;;17.10;99.90;;;;;;5095999;28;19924;-82
2021/07/06 14:18:56;;;;;;;;;;;17.20;99.90;;;;;;5096142;28;19927;-82
2021/07/06 14:21:23;;;;;;;;;;;17.20;99.90;;;;;;5096905;28;19930;-82